• Join FlightAware (Why Join?)
  • Login
  • US Flag 
09:21PM EDT


 

Airport Tracker/Info


-or-


 

Live Flight TrackerFlight Track Log ✈ KAL61 ✈ 24-Apr-2013 ✈ RKSI / ICN - KLAX

Flight Track Log - Related Links

Times and Time Zones

All times are in EDT time to prevent confusion due to time zone crossing. See the KAL61 flight status page for this flight to view local times or setup timezone preferences in your user account.

Time Position Orientation Groundspeed Altitude Reporting Facility
EDT Latitude Longitude Course Direction KTS MPH feet Rate Location/Type
09:04AM 38.3853 127.7047 47° Northeast  Level FlightAware Approximate
09:05AM 38.4762 127.8318 48° Northeast  Level FlightAware Approximate
09:06AM 38.5669 127.9593 48° Northeast  Level FlightAware Approximate
09:07AM 38.6575 128.0871 48° Northeast  Level FlightAware Approximate
09:08AM 38.7458 128.2172 49° Northeast  Level FlightAware Approximate
09:09AM 38.8339 128.3481 49° Northeast  Level FlightAware Approximate
09:10AM 38.9219 128.4794 49° Northeast  Level FlightAware Approximate
09:11AM 39.0097 128.6110 49° Northeast  Level FlightAware Approximate
09:12AM 39.0973 128.7429 49° Northeast  Level FlightAware Approximate
09:13AM 39.1849 128.8752 49° Northeast  Level FlightAware Approximate
09:14AM 39.2722 129.0077 50° Northeast  Level FlightAware Approximate
09:15AM 39.3599 129.1401 49° Northeast  Level FlightAware Approximate
09:16AM 39.4477 129.2726 49° Northeast  Level FlightAware Approximate
09:17AM 39.5353 129.4053 49° Northeast  Level FlightAware Approximate
09:18AM 39.6228 129.5385 50° Northeast  Level FlightAware Approximate
09:19AM 39.7101 129.6720 50° Northeast  Level FlightAware Approximate
09:20AM 39.7973 129.8058 50° Northeast  Level FlightAware Approximate
09:21AM 39.8843 129.9399 50° Northeast  Level FlightAware Approximate
09:22AM 39.9711 130.0744 50° Northeast  Level FlightAware Approximate
09:23AM 40.0578 130.2092 50° Northeast  Level FlightAware Approximate
09:24AM 40.1444 130.3444 50° Northeast  Level FlightAware Approximate
09:25AM 40.2308 130.4799 50° Northeast  Level FlightAware Approximate
09:26AM 40.3170 130.6157 50° Northeast  Level FlightAware Approximate
09:27AM 40.4031 130.7520 50° Northeast  Level FlightAware Approximate
09:28AM 40.4890 130.8885 50° Northeast  Level FlightAware Approximate
09:29AM 40.5747 131.0254 50° Northeast  Level FlightAware Approximate
09:30AM 40.6603 131.1627 51° Northeast  Level FlightAware Approximate
09:31AM 40.7458 131.3003 51° Northeast  Level FlightAware Approximate
09:32AM 40.8310 131.4382 51° Northeast  Level FlightAware Approximate
09:33AM 40.9161 131.5766 51° Northeast  Level FlightAware Approximate
09:34AM 41.0010 131.7152 51° Northeast  Level FlightAware Approximate
09:35AM 41.0858 131.8543 51° Northeast  Level FlightAware Approximate
09:36AM 41.1704 131.9937 51° Northeast  Level FlightAware Approximate
09:37AM 41.2548 132.1334 51° Northeast  Level FlightAware Approximate
09:38AM 41.3391 132.2735 51° Northeast  Level FlightAware Approximate
09:39AM 41.4232 132.4140 51° Northeast  Level FlightAware Approximate
09:40AM 41.5071 132.5548 51° Northeast  Level FlightAware Approximate
09:41AM 41.5908 132.6960 52° Northeast  Level FlightAware Approximate
09:42AM 41.6744 132.8376 52° Northeast  Level FlightAware Approximate
09:43AM 41.7578 132.9795 52° Northeast  Level FlightAware Approximate
09:44AM 41.8410 133.1218 52° Northeast  Level FlightAware Approximate
09:45AM 41.9241 133.2645 52° Northeast  Level FlightAware Approximate
09:46AM 42.0069 133.4076 52° Northeast  Level FlightAware Approximate
09:47AM 42.0896 133.5510 52° Northeast  Level FlightAware Approximate
09:48AM 42.1721 133.6948 52° Northeast  Level FlightAware Approximate
09:49AM 42.2545 133.8389 52° Northeast  Level FlightAware Approximate
09:50AM 42.3366 133.9835 52° Northeast  Level FlightAware Approximate
09:51AM 42.4186 134.1284 53° Northeast  Level FlightAware Approximate
09:52AM 42.5004 134.2737 53° Northeast  Level FlightAware Approximate
09:53AM 42.5820 134.4194 53° Northeast  Level FlightAware Approximate
09:54AM 42.6634 134.5655 53° Northeast  Level FlightAware Approximate
09:55AM 42.7446 134.7119 53° Northeast  Level FlightAware Approximate
09:56AM 42.8257 134.8587 53° Northeast  Level FlightAware Approximate
09:57AM 42.9065 135.0060 53° Northeast  Level FlightAware Approximate
09:58AM 42.9872 135.1536 53° Northeast  Level FlightAware Approximate
09:59AM 43.0677 135.3015 53° Northeast  Level FlightAware Approximate
10:00AM 43.1479 135.4499 53° Northeast  Level FlightAware Approximate
10:01AM 43.2280 135.5987 54° Northeast  Level FlightAware Approximate
10:02AM 43.3079 135.7479 54° Northeast  Level FlightAware Approximate
10:03AM 43.3876 135.8974 54° Northeast  Level FlightAware Approximate
10:04AM 43.4653 136.0439 54° Northeast  Level FlightAware Approximate
10:05AM 43.5428 136.1908 54° Northeast  Level FlightAware Approximate
10:06AM 43.6202 136.3381 54° Northeast  Level FlightAware Approximate
10:07AM 43.6973 136.4858 54° Northeast  Level FlightAware Approximate
10:08AM 43.7743 136.6338 54° Northeast  Level FlightAware Approximate
10:09AM 43.8510 136.7822 54° Northeast  Level FlightAware Approximate
10:10AM 43.9276 136.9310 54° Northeast  Level FlightAware Approximate
10:11AM 44.0039 137.0802 55° Northeast  Level FlightAware Approximate
10:12AM 44.0801 137.2298 55° Northeast  Level FlightAware Approximate
10:13AM 44.1561 137.3798 55° Northeast  Level FlightAware Approximate
10:14AM 44.2319 137.5301 55° Northeast  Level FlightAware Approximate
10:15AM 44.3074 137.6808 55° Northeast  Level FlightAware Approximate
10:16AM 44.3828 137.8320 55° Northeast  Level FlightAware Approximate
10:17AM 44.4580 137.9835 55° Northeast  Level FlightAware Approximate
10:18AM 44.5330 138.1354 55° Northeast  Level FlightAware Approximate
10:19AM 44.6078 138.2876 55° Northeast  Level FlightAware Approximate
10:20AM 44.6824 138.4403 55° Northeast  Level FlightAware Approximate
10:21AM 44.7567 138.5934 56° Northeast  Level FlightAware Approximate
10:22AM 44.8309 138.7469 56° Northeast  Level FlightAware Approximate
10:23AM 44.9049 138.9007 56° Northeast  Level FlightAware Approximate
10:24AM 44.9786 139.0550 56° Northeast  Level FlightAware Approximate
10:25AM 45.0522 139.2096 56° Northeast  Level FlightAware Approximate
10:26AM 45.1255 139.3647 56° Northeast  Level FlightAware Approximate
10:27AM 45.1986 139.5201 56° Northeast  Level FlightAware Approximate
10:28AM 45.2716 139.6760 56° Northeast  Level FlightAware Approximate
10:29AM 45.3443 139.8322 56° Northeast  Level FlightAware Approximate
10:30AM 45.4168 139.9889 57° Northeast  Level FlightAware Approximate
10:31AM 45.4890 140.1459 57° Northeast  Level FlightAware Approximate
10:32AM 45.5611 140.3034 57° Northeast  Level FlightAware Approximate
10:33AM 45.6329 140.4613 57° Northeast  Level FlightAware Approximate
10:34AM 45.7046 140.6195 57° Northeast  Level FlightAware Approximate
10:35AM 45.7761 140.7781 57° Northeast  Level FlightAware Approximate
10:36AM 45.8474 140.9370 57° Northeast  Level FlightAware Approximate
10:37AM 45.9185 141.0964 57° Northeast  Level FlightAware Approximate
10:38AM 45.9894 141.2561 57° Northeast  Level FlightAware Approximate
10:39AM 46.0601 141.4163 58° Northeast  Level FlightAware Approximate
10:40AM 46.1305 141.5769 58° Northeast  Level FlightAware Approximate
10:41AM 46.2007 141.7379 58° Northeast  Level FlightAware Approximate
10:42AM 46.2707 141.8993 58° Northeast  Level FlightAware Approximate
10:43AM 46.3405 142.0611 58° Northeast  Level FlightAware Approximate
10:44AM 46.4100 142.2233 58° Northeast  Level FlightAware Approximate
10:45AM 46.4793 142.3860 58° Northeast  Level FlightAware Approximate
10:46AM 46.5484 142.5490 58° Northeast  Level FlightAware Approximate
10:47AM 46.6172 142.7125 58° Northeast  Level FlightAware Approximate
10:48AM 46.6859 142.8763 59° Northeast  Level FlightAware Approximate
10:49AM 46.7542 143.0406 59° Northeast  Level FlightAware Approximate
10:50AM 46.8224 143.2054 59° Northeast  Level FlightAware Approximate
10:51AM 46.8903 143.3705 59° Northeast  Level FlightAware Approximate
10:52AM 46.9579 143.5360 59° Northeast  Level FlightAware Approximate
10:53AM 47.0254 143.7020 59° Northeast  Level FlightAware Approximate
10:54AM 47.0925 143.8684 59° Northeast  Level FlightAware Approximate
10:55AM 47.1595 144.0352 59° Northeast  Level FlightAware Approximate
10:56AM 47.2262 144.2024 60° Northeast  Level FlightAware Approximate
10:57AM 47.2926 144.3701 60° Northeast  Level FlightAware Approximate
10:58AM 47.3588 144.5381 60° Northeast  Level FlightAware Approximate
10:59AM 47.4248 144.7066 60° Northeast  Level FlightAware Approximate
11:00AM 47.4905 144.8755 60° Northeast  Level FlightAware Approximate
11:01AM 47.5560 145.0449 60° Northeast  Level FlightAware Approximate
11:02AM 47.6212 145.2146 60° Northeast  Level FlightAware Approximate
11:03AM 47.6862 145.3848 60° Northeast  Level FlightAware Approximate
11:04AM 47.7509 145.5554 61° Northeast  Level FlightAware Approximate
11:05AM 47.8154 145.7264 61° Northeast  Level FlightAware Approximate
11:06AM 47.8796 145.8979 61° Northeast  Level FlightAware Approximate
11:07AM 47.9435 146.0698 61° Northeast  Level FlightAware Approximate
11:08AM 48.0072 146.2421 61° Northeast  Level FlightAware Approximate
11:09AM 48.0707 146.4148 61° Northeast  Level FlightAware Approximate
11:10AM 48.1339 146.5880 61° Northeast  Level FlightAware Approximate
11:11AM 48.1968 146.7615 61° Northeast  Level FlightAware Approximate
11:12AM 48.2593 146.9356 62° Northeast  Level FlightAware Approximate
11:13AM 48.3214 147.1103 62° Northeast  Level FlightAware Approximate
11:14AM 48.3833 147.2853 62° Northeast  Level FlightAware Approximate
11:15AM 48.4449 147.4608 62° Northeast  Level FlightAware Approximate
11:16AM 48.5062 147.6367 62° Northeast  Level FlightAware Approximate
11:17AM 48.5673 147.8130 62° Northeast  Level FlightAware Approximate
11:18AM 48.6281 147.9898 62° Northeast  Level FlightAware Approximate
11:19AM 48.6887 148.1670 63° Northeast  Level FlightAware Approximate
11:20AM 48.7490 148.3446 63° Northeast  Level FlightAware Approximate
11:21AM 48.8089 148.5226 63° Northeast  Level FlightAware Approximate
11:22AM 48.8687 148.7010 63° Northeast  Level FlightAware Approximate
11:23AM 48.9281 148.8799 63° Northeast  Level FlightAware Approximate
11:24AM 48.9873 149.0592 63° Northeast  Level FlightAware Approximate
11:25AM 49.0462 149.2390 63° Northeast  Level FlightAware Approximate
11:26AM 49.1048 149.4191 64° Northeast  Level FlightAware Approximate
11:27AM 49.1631 149.5997 64° Northeast  Level FlightAware Approximate
11:28AM 49.2211 149.7807 64° Northeast  Level FlightAware Approximate
11:29AM 49.2789 149.9621 64° Northeast  Level FlightAware Approximate
11:30AM 49.3364 150.1440 64° Northeast  Level FlightAware Approximate
11:31AM 49.3936 150.3263 64° Northeast  Level FlightAware Approximate
11:32AM 49.4505 150.5090 64° Northeast  Level FlightAware Approximate
11:33AM 49.5071 150.6921 64° Northeast  Level FlightAware Approximate
11:34AM 49.5634 150.8757 65° Northeast  Level FlightAware Approximate
11:35AM 49.6194 151.0596 65° Northeast  Level FlightAware Approximate
11:36AM 49.6752 151.2440 65° Northeast  Level FlightAware Approximate
11:37AM 49.7306 151.4288 65° Northeast  Level FlightAware Approximate
11:38AM 49.7858 151.6141 65° Northeast  Level FlightAware Approximate
11:39AM 49.8406 151.7997 65° Northeast  Level FlightAware Approximate
11:40AM 49.8952 151.9858 65° Northeast  Level FlightAware Approximate
11:41AM 49.9494 152.1723 66° East  Level FlightAware Approximate
11:42AM 50.0034 152.3592 66° East  Level FlightAware Approximate
11:43AM 50.0570 152.5466 66° East  Level FlightAware Approximate
11:44AM 50.1104 152.7343 66° East  Level FlightAware Approximate
11:45AM 50.1635 152.9225 66° East  Level FlightAware Approximate
11:46AM 50.2162 153.1111 66° East  Level FlightAware Approximate
11:47AM 50.2687 153.3001 66° East  Level FlightAware Approximate
11:48AM 50.3208 153.4895 67° East  Level FlightAware Approximate
11:49AM 50.3726 153.6794 67° East  Level FlightAware Approximate
11:50AM 50.4241 153.8696 67° East  Level FlightAware Approximate
11:51AM 50.4753 154.0603 67° East  Level FlightAware Approximate
11:52AM 50.5262 154.2514 67° East  Level FlightAware Approximate
11:53AM 50.5768 154.4429 67° East  Level FlightAware Approximate
11:54AM 50.6271 154.6348 67° East  Level FlightAware Approximate
11:55AM 50.6771 154.8271 68° East  Level FlightAware Approximate
11:56AM 50.7267 155.0198 68° East  Level FlightAware Approximate
11:57AM 50.7760 155.2129 68° East  Level FlightAware Approximate
11:58AM 50.8250 155.4064 68° East  Level FlightAware Approximate
11:59AM 50.8737 155.6004 68° East  Level FlightAware Approximate
12:00PM 50.9220 155.7947 68° East  Level FlightAware Approximate
12:01PM 50.9701 155.9895 69° East  Level FlightAware Approximate
12:02PM 51.0178 156.1846 69° East  Level FlightAware Approximate
12:03PM 51.0652 156.3802 69° East  Level FlightAware Approximate
12:04PM 51.1122 156.5761 69° East  Level FlightAware Approximate
12:05PM 51.1589 156.7724 69° East  Level FlightAware Approximate
12:06PM 51.2053 156.9692 69° East  Level FlightAware Approximate
12:07PM 51.2514 157.1663 69° East  Level FlightAware Approximate
12:08PM 51.2971 157.3638 70° East  Level FlightAware Approximate
12:09PM 51.3425 157.5618 70° East  Level FlightAware Approximate
12:10PM 51.3876 157.7601 70° East  Level FlightAware Approximate
12:11PM 51.4323 157.9588 70° East  Level FlightAware Approximate
12:12PM 51.4767 158.1579 70° East  Level FlightAware Approximate
12:13PM 51.5208 158.3573 70° East  Level FlightAware Approximate
12:14PM 51.5645 158.5572 71° East  Level FlightAware Approximate
12:15PM 51.6079 158.7575 71° East  Level FlightAware Approximate
12:15PM 39.1000 165.0000 90° East 573 659 33,000  Level Oakland Oceanic (ODAPS)
12:16PM 51.6509 158.9581 71° East  Level FlightAware Approximate
12:16PM 39.1000 165.2500 90° East 573 659 33,000  Level Oakland Oceanic (ODAPS)
12:17PM 51.6936 159.1591 71° East  Level FlightAware Approximate
12:18PM 51.7360 159.3605 71° East  Level FlightAware Approximate
12:19PM 51.7780 159.5622 71° East  Level FlightAware Approximate
12:20PM 51.8196 159.7644 71° East  Level FlightAware Approximate
12:21PM 39.0950 166.2511 91° East 573 659 33,000  Level FlightAware Transoceanic
12:22PM 39.0900 166.6969 91° East 573 659 33,000  Level FlightAware Transoceanic
12:23PM 39.0871 166.9035 91° East 573 659 33,000  Level FlightAware Transoceanic
12:24PM 39.0838 167.1102 91° East 573 659 33,000  Level FlightAware Transoceanic
12:25PM 39.0802 167.3168 91° East 573 659 33,000  Level FlightAware Transoceanic
12:26PM 39.0762 167.5234 91° East 573 659 33,000  Level FlightAware Transoceanic
12:26PM 39.0833 167.4167 92° East 589 678 33,000  Level Oakland Oceanic (ODAPS)
12:27PM 39.0719 167.7300 92° East 573 659 33,000  Level FlightAware Transoceanic
12:28PM 39.0672 167.9365 92° East 573 659 33,000  Level FlightAware Transoceanic
12:29PM 39.0621 168.1430 92° East 573 659 33,000  Level FlightAware Transoceanic
12:30PM 39.0566 168.3495 92° East 573 659 33,000  Level FlightAware Transoceanic
12:31PM 39.0508 168.5560 92° East 573 659 33,000  Level FlightAware Transoceanic
12:32PM 39.0519 168.6097 92° East 589 678 33,000  Level FlightAware Transoceanic
12:33PM 39.0455 168.8085 92° East 589 678 33,000  Level FlightAware Transoceanic
12:34PM 39.0388 169.0072 93° East 589 678 33,000  Level FlightAware Transoceanic
12:35PM 39.0317 169.2058 93° East 589 678 33,000  Level FlightAware Transoceanic
12:36PM 39.0243 169.4044 93° East 589 678 33,000  Level FlightAware Transoceanic
12:37PM 39.0165 169.6030 93° East 589 678 33,000  Level FlightAware Transoceanic
12:38PM 39.0084 169.8015 93° East 589 678 33,000  Level FlightAware Transoceanic
12:38PM 39.0000 170.0000 79° East 561 646 33,000  Level Oakland Oceanic (ODAPS)
12:39PM 39.0000 170.0000 79° East 589 678 33,000  Level FlightAware Transoceanic
12:40PM 39.0283 170.1968 80° East 589 678 33,000  Level FlightAware Transoceanic
12:40PM 39.0500 170.3167 80° East 561 646 33,000  Level Oakland Oceanic (ODAPS)
12:41PM 39.0563 170.3938 80° East 589 678 33,000  Level FlightAware Transoceanic
12:42PM 39.0840 170.5909 80° East 589 678 33,000  Level FlightAware Transoceanic
12:43PM 39.1113 170.7882 80° East 589 678 33,000  Level FlightAware Transoceanic
12:44PM 39.1382 170.9857 80° East 589 678 33,000  Level FlightAware Transoceanic
12:45PM 39.1649 171.1833 80° East 561 646 33,000  Level FlightAware Transoceanic
12:46PM 39.1912 171.3810 80° East 561 646 33,000  Level FlightAware Transoceanic
12:47PM 39.2346 171.6823 81° East 561 646 33,000  Level FlightAware Transoceanic
12:48PM 39.2597 171.8779 81° East 561 646 33,000  Level FlightAware Transoceanic
12:49PM 39.2844 172.0737 81° East 561 646 33,000  Level FlightAware Transoceanic
12:50PM 39.3088 172.2697 81° East 561 646 33,000  Level FlightAware Transoceanic
12:51PM 39.3329 172.4657 81° East 561 646 33,000  Level FlightAware Transoceanic
12:52PM 39.3566 172.6619 81° East 561 646 33,000  Level FlightAware Transoceanic
12:53PM 39.3801 172.8583 81° East 561 646 33,000  Level FlightAware Transoceanic
12:54PM 39.4031 173.0547 81° East 561 646 33,000  Level FlightAware Transoceanic
12:54PM 39.4000 173.0667 81° East 550 633 33,000  Level Oakland Oceanic (ODAPS)
12:55PM 39.4259 173.2513 82° East 561 646 33,000  Level FlightAware Transoceanic
12:56PM 39.4483 173.4481 82° East 561 646 33,000  Level FlightAware Transoceanic
12:57PM 39.4704 173.6449 82° East 561 646 33,000  Level FlightAware Transoceanic
12:58PM 39.4922 173.8419 82° East 561 646 33,000  Level FlightAware Transoceanic
12:59PM 39.5136 174.0390 82° East 561 646 33,000  Level FlightAware Transoceanic
01:00PM 39.5320 174.2461 82° East 550 633 33,000  Level FlightAware Transoceanic
01:01PM 39.5529 174.4431 82° East 550 633 33,000  Level FlightAware Transoceanic
01:02PM 39.5734 174.6402 82° East 550 633 33,000  Level FlightAware Transoceanic
01:03PM 39.5936 174.8374 83° East 550 633 33,000  Level FlightAware Transoceanic
01:04PM 39.6134 175.0347 83° East 550 633 33,000  Level FlightAware Transoceanic
01:05PM 39.6329 175.2322 83° East 550 633 33,000  Level FlightAware Transoceanic
01:06PM 39.6521 175.4297 83° East 550 633 33,000  Level FlightAware Transoceanic
01:07PM 39.6710 175.6274 83° East 550 633 33,000  Level FlightAware Transoceanic
01:08PM 39.6894 175.8252 83° East 550 633 33,000  Level FlightAware Transoceanic
01:08PM 39.6833 175.7500 83° East 536 617 33,000  Level Oakland Oceanic (ODAPS)
01:09PM 39.7076 176.0231 83° East 550 633 33,000  Level FlightAware Transoceanic
01:10PM 39.7255 176.2211 83° East 550 633 33,000  Level FlightAware Transoceanic
01:11PM 39.7430 176.4192 84° East 550 633 33,000  Level FlightAware Transoceanic
01:12PM 39.7601 176.6174 84° East 550 633 33,000  Level FlightAware Transoceanic
01:13PM 39.7770 176.8156 84° East 550 633 33,000  Level FlightAware Transoceanic
01:14PM 39.7851 176.9051 84° East 536 617 33,000  Level FlightAware Transoceanic
01:15PM 39.8009 177.0979 84° East 536 617 33,000  Level FlightAware Transoceanic
01:16PM 39.8164 177.2908 84° East 536 617 33,000  Level FlightAware Transoceanic
01:17PM 39.8316 177.4838 84° East 536 617 33,000  Level FlightAware Transoceanic
01:18PM 39.8465 177.6769 84° East 536 617 33,000  Level FlightAware Transoceanic
01:19PM 39.8611 177.8701 84° East 536 617 33,000  Level FlightAware Transoceanic
01:20PM 39.8753 178.0634 85° East 536 617 33,000  Level FlightAware Transoceanic
01:21PM 39.8892 178.2567 85° East 536 617 33,000  Level FlightAware Transoceanic
01:21PM 39.9000 178.4000 85° East 521 600 33,000  Level Oakland Oceanic (ODAPS)
01:22PM 39.9028 178.4501 85° East 536 617 33,000  Level FlightAware Transoceanic
01:23PM 39.9161 178.6436 85° East 536 617 33,000  Level FlightAware Transoceanic
01:24PM 39.9290 178.8372 85° East 536 617 33,000  Level FlightAware Transoceanic
01:25PM 39.9417 179.0308 85° East 536 617 33,000  Level FlightAware Transoceanic
01:26PM 39.9540 179.2245 85° East 536 617 33,000  Level FlightAware Transoceanic
01:27PM 39.9660 179.4183 85° East 536 617 33,000  Level FlightAware Transoceanic
01:28PM 39.9771 179.5996 86° East 521 600 33,000  Level FlightAware Transoceanic
01:29PM 39.9887 179.7997 86° East 521 600 33,000  Level FlightAware Transoceanic
01:30PM 40.0000 -180.0000 87° East 521 600 33,000  Level FlightAware Transoceanic
01:30PM 40.0000 180.0000 87° East 550 633 33,000  Level Oakland Oceanic (ODAPS)
01:31PM 40.0086 -179.7963 87° East 521 600 33,000  Level FlightAware Transoceanic
01:32PM 40.0168 -179.5926 87° East 521 600 33,000  Level FlightAware Transoceanic
01:33PM 40.0247 -179.3888 87° East 521 600 33,000  Level FlightAware Transoceanic
01:34PM 40.0322 -179.1850 87° East 521 600 33,000  Level FlightAware Transoceanic
01:35PM 40.0394 -178.9811 87° East 521 600 33,000  Level FlightAware Transoceanic
01:35PM 40.0333 -178.9167 87° East 557 641 33,000  Level Oakland Oceanic (ODAPS)
01:36PM 40.0447 -178.8252 88° East 550 633 33,000  Level FlightAware Transoceanic
01:37PM 40.0509 -178.6293 88° East 550 633 33,000  Level FlightAware Transoceanic
01:38PM 40.0569 -178.4333 88° East 550 633 33,000  Level FlightAware Transoceanic
01:39PM 40.0625 -178.2373 88° East 550 633 33,000  Level FlightAware Transoceanic
01:40PM 40.0678 -178.0412 88° East 550 633 33,000  Level FlightAware Transoceanic
01:41PM 40.0728 -177.8452 88° East 550 633 33,000  Level FlightAware Transoceanic
01:42PM 40.0691 -177.7015 88° East 557 641 33,000  Level FlightAware Transoceanic
01:43PM 40.0738 -177.4989 88° East 557 641 33,000  Level FlightAware Transoceanic
01:44PM 40.0782 -177.2962 88° East 557 641 33,000  Level FlightAware Transoceanic
01:45PM 40.0822 -177.0935 89° East 557 641 33,000  Level FlightAware Transoceanic
01:46PM 40.0858 -176.8908 89° East 557 641 33,000  Level FlightAware Transoceanic
01:47PM 40.0891 -176.6881 89° East 557 641 33,000  Level FlightAware Transoceanic
01:48PM 40.0921 -176.4853 89° East 557 641 33,000  Level FlightAware Transoceanic
01:49PM 40.0947 -176.2826 89° East 557 641 33,000 1,140 Level FlightAware Transoceanic
01:49PM 40.1000 -176.0833 89° East 568 654 35,000  Climbing Oakland Oceanic (ODAPS)
01:50PM 40.0970 -176.0798 89° East 557 641 33,000 -1,560 Descending FlightAware Transoceanic
01:51PM 40.0988 -175.8770 89° East 557 641 33,000  Level FlightAware Transoceanic
01:52PM 40.1004 -175.6742 89° East 557 641 33,000  Level FlightAware Transoceanic
01:53PM 40.1016 -175.4714 90° East 557 641 33,000  Level FlightAware Transoceanic
01:54PM 40.1024 -175.2685 90° East 557 641 33,000  Level FlightAware Transoceanic
01:55PM 40.1029 -175.0657 90° East 557 641 33,000 960 Level FlightAware Transoceanic
01:56PM 40.1054 -174.8237 90° East 568 654 35,000 960 Climbing FlightAware Transoceanic
01:57PM 40.1050 -174.6138 90° East 568 654 35,000  Level FlightAware Transoceanic
01:58PM 40.1042 -174.4038 90° East 568 654 35,000  Level FlightAware Transoceanic
01:59PM 40.1030 -174.1939 90° East 568 654 35,000  Level FlightAware Transoceanic
02:00PM 40.1015 -173.9839 91° East 568 654 35,000  Level FlightAware Transoceanic
02:01PM 40.0995 -173.7740 91° East 568 654 35,000  Level FlightAware Transoceanic
02:02PM 40.0972 -173.5641 91° East 568 654 35,000  Level FlightAware Transoceanic
02:03PM 40.0945 -173.3542 91° East 568 654 35,000  Level FlightAware Transoceanic
02:03PM 40.1000 -173.2500 91° East 569 655 35,000  Level Oakland Oceanic (ODAPS)
02:04PM 40.0915 -173.1444 91° East 568 654 35,000  Level FlightAware Transoceanic
02:05PM 40.0880 -172.9345 91° East 568 654 35,000  Level FlightAware Transoceanic
02:06PM 40.0842 -172.7247 91° East 568 654 35,000  Level FlightAware Transoceanic
02:07PM 40.0800 -172.5149 92° East 568 654 35,000  Level FlightAware Transoceanic
02:08PM 40.0754 -172.3051 92° East 568 654 35,000  Level FlightAware Transoceanic
02:09PM 40.0704 -172.0954 92° East 568 654 35,000  Level FlightAware Transoceanic
02:10PM 40.0674 -171.8270 92° East 569 655 35,000  Level FlightAware Transoceanic
02:11PM 40.0614 -171.6238 92° East 569 655 35,000  Level FlightAware Transoceanic
02:12PM 40.0549 -171.4207 92° East 569 655 35,000  Level FlightAware Transoceanic
02:13PM 40.0481 -171.2176 93° East 569 655 35,000  Level FlightAware Transoceanic
02:14PM 40.0410 -171.0145 93° East 569 655 35,000  Level FlightAware Transoceanic
02:15PM 40.0335 -170.8115 93° East 569 655 35,000  Level FlightAware Transoceanic
02:16PM 40.0257 -170.6086 93° East 569 655 35,000  Level FlightAware Transoceanic
02:17PM 40.0175 -170.4057 93° East 569 655 35,000  Level FlightAware Transoceanic
02:17PM 40.0167 -170.3833 93° East 572 658 35,000  Level Oakland Oceanic (ODAPS)
02:18PM 40.0089 -170.2028 93° East 569 655 35,000  Level FlightAware Transoceanic
02:19PM 40.0000 -170.0000 79° East 569 655 35,000  Level FlightAware Transoceanic
02:19PM 40.0000 -170.0000 79° East 556 640 35,000  Level Oakland Oceanic (ODAPS)
02:20PM 40.0278 -169.8071 79° East 569 655 35,000  Level FlightAware Transoceanic
02:21PM 40.0553 -169.6141 80° East 569 655 35,000  Level FlightAware Transoceanic
02:22PM 40.0825 -169.4210 80° East 569 655 35,000  Level FlightAware Transoceanic
02:23PM 40.1073 -169.2425 80° East 572 658 35,000  Level FlightAware Transoceanic
02:24PM 40.1333 -169.0528 80° East 572 658 35,000  Level FlightAware Transoceanic
02:25PM 40.1652 -168.8173 80° East 556 640 35,000  Level FlightAware Transoceanic
02:26PM 40.1915 -168.6197 80° East 556 640 35,000  Level FlightAware Transoceanic
02:27PM 40.2175 -168.4219 80° East 556 640 35,000  Level FlightAware Transoceanic
02:28PM 40.2432 -168.2239 80° East 556 640 35,000  Level FlightAware Transoceanic
02:29PM 40.2686 -168.0258 81° East 556 640 35,000  Level FlightAware Transoceanic
02:30PM 40.2936 -167.8275 81° East 556 640 35,000  Level FlightAware Transoceanic
02:31PM 40.3183 -167.6291 81° East 556 640 35,000  Level FlightAware Transoceanic
02:31PM 40.3167 -167.6167 81° East 549 632 35,000  Level Oakland Oceanic (ODAPS)
02:32PM 40.3426 -167.4306 81° East 556 640 35,000  Level FlightAware Transoceanic
02:33PM 40.3666 -167.2319 81° East 556 640 35,000  Level FlightAware Transoceanic
02:34PM 40.3902 -167.0330 81° East 556 640 35,000  Level FlightAware Transoceanic
02:35PM 40.4135 -166.8341 81° East 556 640 35,000  Level FlightAware Transoceanic
02:36PM 40.4365 -166.6349 81° East 556 640 35,000  Level FlightAware Transoceanic
02:37PM 40.4577 -166.4252 82° East 549 632 35,000  Level FlightAware Transoceanic
02:38PM 40.4800 -166.2262 82° East 549 632 35,000  Level FlightAware Transoceanic
02:39PM 40.5020 -166.0270 82° East 549 632 35,000  Level FlightAware Transoceanic
02:40PM 40.5236 -165.8277 82° East 549 632 35,000  Level FlightAware Transoceanic
02:41PM 40.5449 -165.6283 82° East 549 632 35,000  Level FlightAware Transoceanic
02:42PM 40.5658 -165.4287 82° East 549 632 35,000  Level FlightAware Transoceanic
02:43PM 40.5864 -165.2290 82° East 549 632 35,000  Level FlightAware Transoceanic
02:44PM 40.6067 -165.0292 82° East 549 632 35,000  Level FlightAware Transoceanic
02:45PM 40.6266 -164.8293 83° East 549 632 35,000  Level FlightAware Transoceanic
02:45PM 40.6167 -164.9333 83° East 535 616 35,000  Level Oakland Oceanic (ODAPS)
02:46PM 40.6461 -164.6292 83° East 549 632 35,000  Level FlightAware Transoceanic
02:47PM 40.6654 -164.4290 83° East 549 632 35,000  Level FlightAware Transoceanic
02:48PM 40.6842 -164.2288 83° East 549 632 35,000  Level FlightAware Transoceanic
02:49PM 40.7028 -164.0284 83° East 549 632 35,000  Level FlightAware Transoceanic
02:50PM 40.7210 -163.8279 83° East 549 632 35,000  Level FlightAware Transoceanic
02:51PM 40.7278 -163.7548 83° East 535 616 35,000  Level FlightAware Transoceanic
02:52PM 40.7452 -163.5580 83° East 535 616 35,000  Level FlightAware Transoceanic
02:53PM 40.7622 -163.3611 84° East 535 616 35,000  Level FlightAware Transoceanic
02:54PM 40.7789 -163.1641 84° East 535 616 35,000  Level FlightAware Transoceanic
02:55PM 40.7952 -162.9670 84° East 535 616 35,000  Level FlightAware Transoceanic
02:56PM 40.8112 -162.7698 84° East 535 616 35,000  Level FlightAware Transoceanic
02:57PM 40.8269 -162.5725 84° East 535 616 35,000  Level FlightAware Transoceanic
02:58PM 40.8422 -162.3751 84° East 535 616 35,000  Level FlightAware Transoceanic
02:59PM 40.8572 -162.1776 84° East 535 616 35,000  Level FlightAware Transoceanic
02:59PM 40.8500 -162.3000 84° East 516 594 35,000  Level Oakland Oceanic (ODAPS)
03:00PM 40.8719 -161.9801 84° East 535 616 35,000  Level FlightAware Transoceanic
03:01PM 40.8862 -161.7824 85° East 535 616 35,000  Level FlightAware Transoceanic
03:02PM 40.9002 -161.5847 85° East 535 616 35,000  Level FlightAware Transoceanic
03:03PM 40.9139 -161.3869 85° East 535 616 35,000  Level FlightAware Transoceanic
03:04PM 40.9272 -161.1890 85° East 535 616 35,000  Level FlightAware Transoceanic
03:05PM 40.9307 -161.1513 85° East 516 594 35,000  Level FlightAware Transoceanic
03:06PM 40.9431 -160.9596 85° East 516 594 35,000  Level FlightAware Transoceanic
03:07PM 40.9551 -160.7678 85° East 516 594 35,000  Level FlightAware Transoceanic
03:08PM 40.9668 -160.5759 85° East 516 594 35,000  Level FlightAware Transoceanic
03:09PM 40.9782 -160.3840 86° East 516 594 35,000  Level FlightAware Transoceanic
03:10PM 40.9893 -160.1920 86° East 516 594 35,000  Level FlightAware Transoceanic
03:11PM 41.0000 -160.0000 72° East 516 594 35,000  Level FlightAware Transoceanic
03:11PM 41.0000 -160.0000 72° East 511 588 35,000  Level Oakland Oceanic (ODAPS)
03:12PM 41.0432 -159.8272 72° East 516 594 35,000  Level FlightAware Transoceanic
03:12PM 41.0667 -159.7167 72° East 498 573 35,000  Level Oakland Oceanic (ODAPS)
03:13PM 41.0861 -159.6542 72° East 516 594 35,000  Level FlightAware Transoceanic
03:14PM 41.1287 -159.4809 72° East 516 594 35,000  Level FlightAware Transoceanic
03:15PM 41.1711 -159.3074 72° East 516 594 35,000  Level FlightAware Transoceanic
03:16PM 41.2132 -159.1337 72° East 516 594 35,000  Level FlightAware Transoceanic
03:17PM 41.2551 -158.9598 72° East 516 594 35,000  Level FlightAware Transoceanic
03:18PM 41.3020 -158.7635 72° East 511 588 35,000  Level FlightAware Transoceanic
03:19PM 41.3213 -158.6673 72° East 498 573 35,000  Level FlightAware Transoceanic
03:20PM 41.3628 -158.4917 73° East 498 573 35,000  Level FlightAware Transoceanic
03:21PM 41.4041 -158.3158 73° East 498 573 35,000  Level FlightAware Transoceanic
03:22PM 41.4450 -158.1396 73° East 498 573 35,000  Level FlightAware Transoceanic
03:23PM 41.4857 -157.9633 73° East 498 573 35,000  Level FlightAware Transoceanic
03:24PM 41.5262 -157.7867 73° East 498 573 35,000  Level FlightAware Transoceanic
03:25PM 41.5663 -157.6100 73° East 498 573 35,000  Level FlightAware Transoceanic
03:26PM 41.6062 -157.4330 73° East 498 573 35,000  Level FlightAware Transoceanic
03:26PM 41.6333 -157.3167 73° East 491 565 35,000  Level Oakland Oceanic (ODAPS)
03:27PM 41.6459 -157.2557 73° East 498 573 35,000  Level FlightAware Transoceanic
03:28PM 41.6852 -157.0783 74° East 498 573 35,000  Level FlightAware Transoceanic
03:29PM 41.7243 -156.9006 74° East 498 573 35,000  Level FlightAware Transoceanic
03:30PM 41.7631 -156.7228 74° East 498 573 35,000  Level FlightAware Transoceanic
03:31PM 41.8016 -156.5447 74° East 498 573 35,000  Level FlightAware Transoceanic
03:32PM 41.8399 -156.3664 74° East 498 573 35,000  Level FlightAware Transoceanic
03:33PM 41.8621 -156.2664 74° East 491 565 35,000  Level FlightAware Transoceanic
03:34PM 41.8993 -156.0906 74° East 491 565 35,000  Level FlightAware Transoceanic
03:35PM 41.9362 -155.9146 74° East 491 565 35,000  Level FlightAware Transoceanic
03:36PM 41.9729 -155.7384 74° East 491 565 35,000  Level FlightAware Transoceanic
03:37PM 42.0092 -155.5621 75° East 491 565 35,000  Level FlightAware Transoceanic
03:38PM 42.0454 -155.3855 75° East 491 565 35,000  Level FlightAware Transoceanic
03:39PM 42.0812 -155.2087 75° East 491 565 35,000  Level FlightAware Transoceanic
03:40PM 42.1168 -155.0317 75° East 491 565 35,000  Level FlightAware Transoceanic
03:40PM 42.1500 -154.8667 75° East 495 570 35,000  Level Oakland Oceanic (ODAPS)
03:41PM 42.1521 -154.8545 75° East 491 565 35,000  Level FlightAware Transoceanic
03:42PM 42.1871 -154.6772 75° East 491 565 35,000  Level FlightAware Transoceanic
03:43PM 42.2219 -154.4996 75° East 491 565 35,000  Level FlightAware Transoceanic
03:44PM 42.2563 -154.3218 75° East 491 565 35,000  Level FlightAware Transoceanic
03:45PM 42.2905 -154.1439 75° East 491 565 35,000  Level FlightAware Transoceanic
03:46PM 42.3294 -153.9413 76° East 495 570 35,000  Level FlightAware Transoceanic
03:47PM 42.3643 -153.7556 76° East 495 570 35,000  Level FlightAware Transoceanic
03:48PM 42.3990 -153.5697 76° East 495 570 35,000  Level FlightAware Transoceanic
03:49PM 42.4334 -153.3835 76° East 495 570 35,000  Level FlightAware Transoceanic
03:50PM 42.4675 -153.1972 76° East 495 570 35,000  Level FlightAware Transoceanic
03:51PM 42.5013 -153.0107 76° East 495 570 35,000  Level FlightAware Transoceanic
03:52PM 42.5347 -152.8240 76° East 495 570 35,000  Level FlightAware Transoceanic
03:53PM 42.5679 -152.6371 77° East 495 570 35,000  Level FlightAware Transoceanic
03:54PM 42.6007 -152.4499 77° East 495 570 35,000  Level FlightAware Transoceanic
03:54PM 42.6167 -152.3833 77° East 479 551 35,000  Level Oakland Oceanic (ODAPS)
03:55PM 42.6333 -152.2626 77° East 495 570 35,000  Level FlightAware Transoceanic
03:56PM 42.6656 -152.0751 77° East 495 570 35,000  Level FlightAware Transoceanic
03:57PM 42.6975 -151.8874 77° East 495 570 35,000  Level FlightAware Transoceanic
03:58PM 42.7291 -151.6995 77° East 495 570 35,000  Level FlightAware Transoceanic
03:59PM 42.7605 -151.5114 77° East 495 570 35,000  Level FlightAware Transoceanic
04:00PM 42.7870 -151.3655 78° East 479 551 35,000  Level FlightAware Transoceanic
04:01PM 42.8145 -151.1954 78° East 479 551 35,000  Level FlightAware Transoceanic
04:02PM 42.8418 -151.0250 78° East 479 551 35,000  Level FlightAware Transoceanic
04:03PM 42.8688 -150.8546 78° East 479 551 35,000  Level FlightAware Transoceanic
04:04PM 42.8955 -150.6839 78° East 479 551 35,000  Level FlightAware Transoceanic
04:05PM 42.9220 -150.5132 78° East 479 551 35,000  Level FlightAware Transoceanic
04:06PM 42.9483 -150.3423 78° East 479 551 35,000  Level FlightAware Transoceanic
04:07PM 42.9743 -150.1712 78° East 479 551 35,000  Level FlightAware Transoceanic
04:08PM 43.0000 -150.0000 87° East 479 551 35,000  Level FlightAware Transoceanic
04:08PM 43.0000 -150.0000 87° East 472 543 35,000  Level Oakland Oceanic (ODAPS)
04:08PM 43.0000 -149.9500 87° East 469 540 35,000  Level Oakland Oceanic (ODAPS)
04:09PM 43.0078 -149.8186 87° East 479 551 35,000  Level FlightAware Transoceanic
04:10PM 43.0153 -149.6371 87° East 479 551 35,000  Level FlightAware Transoceanic
04:11PM 43.0225 -149.4556 87° East 479 551 35,000  Level FlightAware Transoceanic
04:12PM 43.0294 -149.2741 87° East 479 551 35,000  Level FlightAware Transoceanic
04:13PM 43.0360 -149.0925 87° East 479 551 35,000  Level FlightAware Transoceanic
04:14PM 43.0417 -148.9303 87° East 472 543 35,000  Level FlightAware Transoceanic
04:15PM 43.0472 -148.7082 87° East 469 540 35,000  Level FlightAware Transoceanic
04:16PM 43.0528 -148.5306 88° East 469 540 35,000  Level FlightAware Transoceanic
04:17PM 43.0582 -148.3530 88° East 469 540 35,000  Level FlightAware Transoceanic
04:18PM 43.0633 -148.1754 88° East 469 540 35,000  Level FlightAware Transoceanic
04:19PM 43.0681 -147.9978 88° East 469 540 35,000  Level FlightAware Transoceanic
04:20PM 43.0726 -147.8201 88° East 469 540 35,000  Level FlightAware Transoceanic
04:21PM 43.0769 -147.6424 88° East 469 540 35,000  Level FlightAware Transoceanic
04:22PM 43.0809 -147.4647 88° East 469 540 35,000  Level FlightAware Transoceanic
04:22PM 43.0833 -147.5000 88° East 470 541 35,000  Level Oakland Oceanic (ODAPS)
04:23PM 43.0846 -147.2870 88° East 469 540 35,000  Level FlightAware Transoceanic
04:24PM 43.0881 -147.1092 89° East 469 540 35,000  Level FlightAware Transoceanic
04:25PM 43.0912 -146.9314 89° East 469 540 35,000  Level FlightAware Transoceanic
04:26PM 43.0941 -146.7536 89° East 469 540 35,000  Level FlightAware Transoceanic
04:27PM 43.0967 -146.5758 89° East 469 540 35,000  Level FlightAware Transoceanic
04:28PM 43.1015 -146.4282 89° East 470 541 35,000  Level FlightAware Transoceanic
04:29PM 43.1035 -146.2495 89° East 470 541 35,000  Level FlightAware Transoceanic
04:30PM 43.1053 -146.0708 89° East 470 541 35,000  Level FlightAware Transoceanic
04:31PM 43.1068 -145.8921 89° East 470 541 35,000  Level FlightAware Transoceanic
04:32PM 43.1080 -145.7134 90° East 470 541 35,000  Level FlightAware Transoceanic
04:33PM 43.1089 -145.5347 90° East 470 541 35,000  Level FlightAware Transoceanic
04:34PM 43.1096 -145.3559 90° East 470 541 35,000  Level FlightAware Transoceanic
04:35PM 43.1099 -145.1772 90° East 470 541 35,000  Level FlightAware Transoceanic
04:36PM 43.1100 -144.9985 90° East 470 541 35,000  Level FlightAware Transoceanic
04:36PM 43.1167 -144.9833 90° East 480 552 35,000  Level Oakland Oceanic (ODAPS)
04:37PM 43.1099 -144.8197 90° East 470 541 35,000  Level FlightAware Transoceanic
04:38PM 43.1094 -144.6410 90° East 470 541 35,000  Level FlightAware Transoceanic
04:39PM 43.1087 -144.4623 90° East 470 541 35,000  Level FlightAware Transoceanic
04:40PM 43.1076 -144.2836 91° East 470 541 35,000  Level FlightAware Transoceanic
04:41PM 43.1063 -144.1048 91° East 470 541 35,000  Level FlightAware Transoceanic
04:42PM 43.1094 -143.8746 91° East 480 552 35,000  Level FlightAware Transoceanic
04:43PM 43.1072 -143.6898 91° East 480 552 35,000  Level FlightAware Transoceanic
04:44PM 43.1047 -143.5051 91° East 480 552 35,000  Level FlightAware Transoceanic
04:45PM 43.1018 -143.3203 91° East 480 552 35,000  Level FlightAware Transoceanic
04:46PM 43.0987 -143.1356 91° East 480 552 35,000  Level FlightAware Transoceanic
04:47PM 43.0952 -142.9509 92° East 480 552 35,000  Level FlightAware Transoceanic
04:48PM 43.0915 -142.7663 92° East 480 552 35,000  Level FlightAware Transoceanic
04:49PM 43.0875 -142.5816 92° East 480 552 35,000  Level FlightAware Transoceanic
04:50PM 43.0832 -142.3970 92° East 480 552 35,000  Level FlightAware Transoceanic
04:50PM 43.0833 -142.4500 92° East 483 556 35,000  Level Oakland Oceanic (ODAPS)
04:51PM 43.0785 -142.2124 92° East 480 552 35,000  Level FlightAware Transoceanic
04:52PM 43.0736 -142.0278 92° East 480 552 35,000  Level FlightAware Transoceanic
04:53PM 43.0684 -141.8433 92° East 480 552 35,000  Level FlightAware Transoceanic
04:54PM 43.0629 -141.6588 92° East 480 552 35,000  Level FlightAware Transoceanic
04:55PM 43.0571 -141.4743 93° East 480 552 35,000  Level FlightAware Transoceanic
04:56PM 43.0514 -141.3184 93° East 483 556 35,000  Level FlightAware Transoceanic
04:57PM 43.0450 -141.1299 93° East 483 556 35,000  Level FlightAware Transoceanic
04:58PM 43.0382 -140.9415 93° East 483 556 35,000  Level FlightAware Transoceanic
04:59PM 43.0312 -140.7531 93° East 483 556 35,000  Level FlightAware Transoceanic
05:00PM 43.0239 -140.5648 93° East 483 556 35,000  Level FlightAware Transoceanic
05:01PM 43.0162 -140.3765 93° East 483 556 35,000  Level FlightAware Transoceanic
05:02PM 43.0083 -140.1882 93° East 483 556 35,000  Level FlightAware Transoceanic
05:03PM 43.0000 -140.0000 102° East 483 556 35,000 1,200 Level FlightAware Transoceanic
05:03PM 43.0000 -140.0000 102° East 487 560 37,000 2,040 Climbing Oakland Oceanic (ODAPS)
05:03PM 42.9833 -139.8833 102° East 489 563 37,000 -6,000 Level Oakland Oceanic (ODAPS)
05:04PM 42.9726 -139.8194 102° East 483 556 35,000 -1,980 Descending FlightAware Transoceanic
05:05PM 42.9448 -139.6390 102° East 483 556 35,000  Level FlightAware Transoceanic
05:06PM 42.9168 -139.4587 102° East 483 556 35,000  Level FlightAware Transoceanic
05:07PM 42.8885 -139.2786 102° East 483 556 35,000  Level FlightAware Transoceanic
05:08PM 42.8600 -139.0987 102° East 483 556 35,000  Level FlightAware Transoceanic
05:09PM 42.8311 -138.9189 102° East 483 556 35,000 960 Level FlightAware Transoceanic
05:10PM 42.8121 -138.7961 103° East 489 563 37,000 960 Climbing FlightAware Transoceanic
05:11PM 42.7826 -138.6155 103° East 489 563 37,000  Level FlightAware Transoceanic
05:12PM 42.7528 -138.4350 103° East 489 563 37,000  Level FlightAware Transoceanic
05:13PM 42.7227 -138.2548 103° East 489 563 37,000  Level FlightAware Transoceanic
05:14PM 42.6923 -138.0747 103° East 489 563 37,000  Level FlightAware Transoceanic
05:15PM 42.6616 -137.8948 103° East 489 563 37,000  Level FlightAware Transoceanic
05:16PM 42.6307 -137.7150 103° East 489 563 37,000  Level FlightAware Transoceanic
05:17PM 42.5994 -137.5355 103° East 489 563 37,000  Level FlightAware Transoceanic
05:17PM 42.5833 -137.4000 104° East 484 557 37,000  Level Oakland Oceanic (ODAPS)
05:18PM 42.5679 -137.3561 103° East 489 563 37,000  Level FlightAware Transoceanic
05:19PM 42.5361 -137.1769 104° East 489 563 37,000  Level FlightAware Transoceanic
05:20PM 42.5041 -136.9979 104° East 489 563 37,000  Level FlightAware Transoceanic
05:21PM 42.4717 -136.8191 104° East 489 563 37,000  Level FlightAware Transoceanic
05:22PM 42.4391 -136.6404 104° East 489 563 37,000  Level FlightAware Transoceanic
05:23PM 42.4062 -136.4620 104° East 489 563 37,000  Level FlightAware Transoceanic
05:24PM 42.3866 -136.3210 104° East 484 557 37,000  Level FlightAware Transoceanic
05:25PM 42.3528 -136.1418 104° East 484 557 37,000  Level FlightAware Transoceanic
05:26PM 42.3188 -135.9628 104° East 484 557 37,000  Level FlightAware Transoceanic
05:27PM 42.2845 -135.7841 105° East 484 557 37,000  Level FlightAware Transoceanic
05:28PM 42.2498 -135.6055 105° East 484 557 37,000  Level FlightAware Transoceanic
05:29PM 42.2150 -135.4271 105° East 484 557 37,000  Level FlightAware Transoceanic
05:30PM 42.1798 -135.2489 105° East 484 557 37,000  Level FlightAware Transoceanic
05:31PM 42.1444 -135.0709 105° East 484 557 37,000  Level FlightAware Transoceanic
05:31PM 42.1167 -134.9667 105° East 481 554 37,000  Level Oakland Oceanic (ODAPS)
05:32PM 42.1087 -134.8931 105° East 484 557 37,000  Level FlightAware Transoceanic
05:33PM 42.0727 -134.7155 105° East 484 557 37,000  Level FlightAware Transoceanic
05:34PM 42.0364 -134.5381 105° East 484 557 37,000  Level FlightAware Transoceanic
05:35PM 41.9999 -134.3609 106° East 484 557 37,000  Level FlightAware Transoceanic
05:36PM 41.9631 -134.1839 106° East 484 557 37,000  Level FlightAware Transoceanic
05:37PM 41.9260 -134.0072 106° East 484 557 37,000  Level FlightAware Transoceanic
05:38PM 41.8754 -133.7926 106° East 481 554 37,000  Level FlightAware Transoceanic
05:39PM 41.8399 -133.6256 106° East 481 554 37,000  Level FlightAware Transoceanic
05:40PM 41.8042 -133.4588 106° East 481 554 37,000  Level FlightAware Transoceanic
05:41PM 41.7683 -133.2922 106° East 481 554 37,000  Level FlightAware Transoceanic
05:42PM 41.7321 -133.1257 106° East 481 554 37,000  Level FlightAware Transoceanic
05:43PM 41.6957 -132.9595 106° East 481 554 37,000  Level FlightAware Transoceanic
05:44PM 41.6591 -132.7934 107° East 481 554 37,000  Level FlightAware Transoceanic
05:45PM 41.6222 -132.6275 107° East 481 554 37,000  Level FlightAware Transoceanic
05:45PM 41.6167 -132.6000 107° East 481 554 37,000  Level Oakland Oceanic (ODAPS)
05:46PM 41.5851 -132.4619 107° East 481 554 37,000  Level FlightAware Transoceanic
05:47PM 41.5477 -132.2964 107° East 481 554 37,000  Level FlightAware Transoceanic
05:48PM 41.5101 -132.1311 107° East 481 554 37,000  Level FlightAware Transoceanic
05:49PM 41.4723 -131.9660 107° East 481 554 37,000  Level FlightAware Transoceanic
05:50PM 41.4342 -131.8011 107° East 481 554 37,000  Level FlightAware Transoceanic
05:51PM 41.3959 -131.6364 107° East 481 554 37,000  Level FlightAware Transoceanic
05:52PM 41.3541 -131.4565 107° East 481 554 37,000  Level FlightAware Transoceanic
05:53PM 41.3157 -131.2939 108° East 481 554 37,000  Level FlightAware Transoceanic
05:54PM 41.2770 -131.1314 108° East 481 554 37,000  Level FlightAware Transoceanic
05:55PM 41.2381 -130.9692 108° East 481 554 37,000  Level FlightAware Transoceanic
05:56PM 41.1990 -130.8072 108° East 481 554 37,000  Level FlightAware Transoceanic
05:57PM 41.1596 -130.6454 108° East 481 554 37,000  Level FlightAware Transoceanic
05:58PM 41.1201 -130.4837 108° East 481 554 37,000  Level FlightAware Transoceanic
05:59PM 41.0803 -130.3223 108° East 481 554 37,000  Level FlightAware Transoceanic
05:59PM 41.0667 -130.2500 109° East 481 554 37,000  Level Oakland Oceanic (ODAPS)
06:00PM 41.0402 -130.1611 108° East 481 554 37,000  Level FlightAware Transoceanic
06:00PM 41.0000 -130.0000 106° East 480 552 37,000  Level Oakland Oceanic (ODAPS)
06:01PM 41.0000 -130.0000 106° East 481 554 37,000  Level FlightAware Transoceanic
06:02PM 40.9610 -129.8218 106° East 481 554 37,000  Level FlightAware Transoceanic
06:03PM 40.9217 -129.6438 106° East 481 554 37,000  Level FlightAware Transoceanic
06:04PM 40.8821 -129.4660 106° East 481 554 37,000  Level FlightAware Transoceanic
06:05PM 40.8423 -129.2885 107° East 481 554 37,000  Level FlightAware Transoceanic
06:06PM 40.8022 -129.1111 107° East 481 554 37,000  Level FlightAware Transoceanic
06:07PM 40.7753 -128.9930 107° East 480 552 37,000  Level FlightAware Transoceanic
06:08PM 40.7370 -128.8259 107° East 480 552 37,000  Level FlightAware Transoceanic
06:09PM 40.6985 -128.6589 107° East 480 552 37,000  Level FlightAware Transoceanic
06:10PM 40.6597 -128.4921 107° East 480 552 37,000  Level FlightAware Transoceanic
06:11PM 40.6207 -128.3255 107° East 480 552 37,000  Level FlightAware Transoceanic
06:12PM 40.5814 -128.1592 107° East 480 552 37,000  Level FlightAware Transoceanic
06:13PM 40.5419 -127.9930 107° East 480 552 37,000  Level FlightAware Transoceanic
06:13PM 40.5167 -127.9167 107° East 484 557 37,000  Level Oakland Oceanic (ODAPS)
06:14PM 40.5022 -127.8270 108° East 480 552 37,000  Level FlightAware Transoceanic
06:15PM 40.4622 -127.6612 108° East 480 552 37,000  Level FlightAware Transoceanic
06:16PM 40.4220 -127.4956 108° East 480 552 37,000  Level FlightAware Transoceanic
06:16PM 40.4042 -127.4406 113° Southeast 485 558 37,000  Level Oakland Center
06:17PM 40.3816 -127.3302 108° East 480 552 37,000  Level FlightAware Transoceanic
06:17PM 40.3642 -127.2722 107° East 485 558 37,000  Level Oakland Center
06:18PM 40.3409 -127.1650 108° East 480 552 37,000 -120 Level FlightAware Transoceanic
06:18PM 40.3228 -127.1033 108° East 487 560 36,900  Descending Oakland Center
06:19PM 40.3000 -127.0000 112° Southeast 484 557 37,000  Climbing FlightAware Transoceanic
06:19PM 40.2850 -126.9372 107° East 484 557 36,900  Descending Oakland Center
06:20PM 40.2458 -126.8274 112° Southeast 484 557 37,000 60 Climbing FlightAware Transoceanic
06:20PM 40.2219 -126.7403 113° Southeast 489 563 37,000  Level Oakland Center
06:21PM 40.1914 -126.6550 113° Southeast 484 557 37,000 -120 Level FlightAware Transoceanic
06:21PM 40.1617 -126.5803 116° Southeast 491 565 36,900 -120 Descending Oakland Center
06:22PM 40.0750 -126.4425 129° Southeast 491 565 36,900  Level Oakland Center
06:23PM 39.9869 -126.3044 130° Southeast 496 571 37,000  Climbing Oakland Center
06:24PM 39.9033 -126.1658 128° Southeast 492 566 36,900  Descending Oakland Center
06:25PM 39.8158 -126.0275 129° Southeast 494 568 37,000  Climbing Oakland Center
06:26PM 39.7303 -125.8917 129° Southeast 490 564 37,000  Level Oakland Center
06:27PM 39.6436 -125.7531 129° Southeast 494 568 37,000  Level Oakland Center
06:28PM 39.5400 -125.5897 129° Southeast 493 567 37,000 -60 Level Oakland Center
06:29PM 39.4517 -125.4528 130° Southeast 495 570 36,900  Descending Oakland Center
06:30PM 39.3717 -125.3267 129° Southeast 499 574 37,000  Climbing Oakland Center
06:31PM 39.2836 -125.1881 129° Southeast 502 578 36,900 -60 Descending Oakland Center
06:32PM 39.1944 -125.0514 130° Southeast 500 575 36,900  Level Oakland Center
06:33PM 39.0986 -124.9047 130° Southeast 500 575 37,000  Climbing Oakland Center
06:34PM 39.0106 -124.7672 129° Southeast 501 577 37,000 -60 Level Oakland Center
06:35PM 38.9219 -124.6319 130° Southeast 498 573 36,900  Descending Oakland Center
06:36PM 38.8150 -124.4706 130° Southeast 497 572 37,000  Climbing Oakland Center
06:37PM 38.7256 -124.3342 130° Southeast 500 575 36,900  Descending Oakland Center
06:38PM 38.6419 -124.2067 130° Southeast 503 579 37,000  Climbing Oakland Center
06:39PM 38.5536 -124.0725 130° Southeast 495 570 37,000  Level Oakland Center
06:40PM 38.4642 -123.9383 130° Southeast 497 572 37,000  Level Oakland Center
06:41PM 38.3739 -123.8064 131° Southeast 496 571 37,000 -60 Level Oakland Center
06:42PM 38.2675 -123.6464 130° Southeast 494 568 36,900  Descending Oakland Center
06:43PM 38.1778 -123.5147 131° Southeast 494 568 37,000  Climbing Oakland Center
06:44PM 38.0869 -123.3831 131° Southeast 500 575 37,000 -60 Level Oakland Center
06:45PM 37.9983 -123.2525 131° Southeast 495 570 36,900  Descending Oakland Center
06:46PM 37.9083 -123.1236 131° Southeast 492 566 37,000  Climbing Oakland Center
06:47PM 37.8186 -122.9936 131° Southeast 494 568 37,000  Level Oakland Center
06:48PM 37.7292 -122.8622 131° Southeast 500 575 37,000  Level Oakland Center
06:49PM 37.6217 -122.7072 131° Southeast 497 572 37,000  Level Oakland Center
06:50PM 37.5322 -122.5792 131° Southeast 493 567 37,000 -60 Level Oakland Center
06:51PM 37.4428 -122.4511 131° Southeast 492 566 36,900 -60 Descending Oakland Center
06:52PM 37.3544 -122.3231 131° Southeast 489 563 36,900  Level Oakland Center
06:53PM 37.2656 -122.1972 132° Southeast 486 559 37,000  Climbing Oakland Center
06:54PM 37.1797 -122.0750 131° Southeast 473 544 36,900 -60 Descending Oakland Center
06:55PM 37.0931 -121.9539 132° Southeast 470 541 36,900  Level Oakland Center
06:56PM 37.0067 -121.8314 131° Southeast 470 541 36,900  Level Oakland Center
06:57PM 36.9025 -121.6861 132° Southeast 469 540 36,900  Level Oakland Center
06:58PM 36.8147 -121.5664 132° Southeast 467 537 37,000  Climbing Oakland Center
07:00PM 36.7389 -121.4581 131° Southeast 470 541 36,900 -60 Descending Oakland Center
07:01PM 36.6517 -121.3372 132° Southeast 469 540 36,900  Level Oakland Center
07:02PM 36.5481 -121.1944 132° Southeast 465 535 36,900  Level Oakland Center
07:03PM 36.4633 -121.0747 131° Southeast 462 532 37,000  Climbing Oakland Center
07:04PM 36.3769 -120.9575 132° Southeast 459 528 37,000  Level Oakland Center
07:05PM 36.2911 -120.8406 132° Southeast 458 527 37,000 -60 Level Oakland Center
07:06PM 36.2056 -120.7236 132° Southeast 458 527 36,900  Descending Oakland Center
07:07PM 36.1197 -120.6081 133° Southeast 456 525 37,000  Climbing Oakland Center
07:08PM 36.0319 -120.4919 133° Southeast 463 533 36,900  Descending Oakland Center
07:09PM 35.9431 -120.3722 133° Southeast 470 541 37,000  Climbing Oakland Center
07:10PM 35.8531 -120.2519 133° Southeast 474 545 37,000 -60 Level Oakland Center
07:11PM 35.7628 -120.1319 133° Southeast 473 544 36,900  Descending Oakland Center
07:12PM 35.6544 -119.9892 133° Southeast 472 543 37,000  Climbing Oakland Center
07:13PM 35.5483 -119.8917 143° Southeast 468 539 36,900 -60 Descending Oakland Center
07:14PM 35.4394 -119.7992 145° Southeast 471 542 36,900  Level Oakland Center
07:15PM 35.3319 -119.7067 145° Southeast 469 540 37,000  Climbing Oakland Center
07:16PM 35.2242 -119.6158 145° Southeast 469 540 37,000 -300 Level Oakland Center
07:17PM 35.1161 -119.5228 145° Southeast 471 542 36,400 -1,380 Descending Oakland Center
07:18PM 35.0078 -119.4333 146° Southeast 470 541 34,200 -2,400 Descending Oakland Center
07:19PM 34.9056 -119.3422 144° Southeast 460 529 31,500 -2,760 Descending Oakland Center
07:20PM 34.8025 -119.2550 145° Southeast 454 522 28,600 -3,120 Descending Oakland Center
07:21PM 34.6878 -119.1572 145° Southeast 421 484 25,000 -2,820 Descending Los Angeles Center
07:22PM 34.6006 -119.0864 146° Southeast 411 473 22,600 -2,580 Descending Los Angeles Center
07:23PM 34.5150 -119.0117 144° Southeast 377 434 19,700 -2,880 Descending Los Angeles Center
07:24PM 34.4164 -118.9308 146° Southeast 351 404 16,600 -2,340 Descending Los Angeles Center
07:25PM 34.3372 -118.8733 149° Southeast 327 376 14,900 -1,620 Descending Los Angeles Center
07:26PM 34.2494 -118.8417 163° South 328 377 13,300 -1,380 Descending Los Angeles Center
07:27PM 34.1625 -118.8097 163° South 328 377 12,100 -1,020 Descending Los Angeles Center
07:28PM 34.0733 -118.7764 163° South 301 346 11,200 -1,020 Descending Los Angeles Center
07:29PM 34.0328 -118.7050 124° Southeast 267 307 10,000 -780 Descending Los Angeles Center
07:30PM 34.0253 -118.6161 96° East 265 305 9,700 -840 Descending Los Angeles Center
07:31PM 34.0167 -118.5214 96° East 264 304 8,300 -1,200 Descending Los Angeles Center
07:32PM 34.0114 -118.4417 95° East 257 296 7,300 -1,080 Descending Los Angeles Center
07:33PM 34.0242 -118.3694 78° East 265 305 6,200 -1,260 Descending Los Angeles Center
07:35PM 34.0411 -118.2647 79° East 266 306 4,700 -1,740 Descending Los Angeles Center
07:36PM 34.0506 -118.1786 82° East 260 299 2,600 -1,020 Descending Los Angeles Center
07:37PM 34.0281 -118.0994 109° East 235 270 2,600  Level Los Angeles Center
07:38PM 33.9864 -118.1283 210° Southwest 201 231 2,600  Level Los Angeles Center
07:39PM 33.9736 -118.1900 256° West 195 224 2,600  Level Los Angeles Center
07:40PM 33.9681 -118.2483 263° West 184 212 2,600 -420 Level Los Angeles Center
07:41PM 33.9631 -118.3053 264° West 177 204 1,700 -900 Descending Los Angeles Center
07:42PM 33.9561 -118.3736 263° West 158 182 600 -780 Descending Los Angeles Center
07:43PM 33.9519 -118.4239 264° West 150 173 100 -540 Descending Los Angeles Center
07:45PM 33.9425 -118.4081 81° East  Level Estimated